sensor_id;sensor_type;location;lat;lon;timestamp;P1;durP1;ratioP1;P2;durP2;ratioP2
73113;SDS011;61301;51.956;5.876;2023-03-22T00:01:33;9.40;;;4.00;;
73113;SDS011;61301;51.956;5.876;2023-03-22T00:04:02;8.10;;;3.03;;
73113;SDS011;61301;51.956;5.876;2023-03-22T00:06:28;11.27;;;3.33;;
73113;SDS011;61301;51.956;5.876;2023-03-22T00:08:54;8.20;;;3.10;;
73113;SDS011;61301;51.956;5.876;2023-03-22T00:11:20;7.40;;;2.60;;
73113;SDS011;61301;51.956;5.876;2023-03-22T00:13:50;7.40;;;3.05;;
73113;SDS011;61301;51.956;5.876;2023-03-22T00:16:17;7.70;;;3.05;;
73113;SDS011;61301;51.956;5.876;2023-03-22T00:18:43;9.60;;;2.92;;
73113;SDS011;61301;51.956;5.876;2023-03-22T00:21:10;8.77;;;3.05;;
73113;SDS011;61301;51.956;5.876;2023-03-22T00:23:38;16.70;;;3.17;;
73113;SDS011;61301;51.956;5.876;2023-03-22T00:26:04;9.90;;;2.72;;
73113;SDS011;61301;51.956;5.876;2023-03-22T00:28:31;7.28;;;3.13;;
73113;SDS011;61301;51.956;5.876;2023-03-22T00:30:58;5.85;;;2.65;;
73113;SDS011;61301;51.956;5.876;2023-03-22T00:33:28;9.43;;;2.50;;
73113;SDS011;61301;51.956;5.876;2023-03-22T00:36:00;6.72;;;2.40;;
73113;SDS011;61301;51.956;5.876;2023-03-22T00:38:31;4.80;;;2.65;;
73113;SDS011;61301;51.956;5.876;2023-03-22T00:41:22;7.50;;;2.88;;
73113;SDS011;61301;51.956;5.876;2023-03-22T00:43:49;8.00;;;2.78;;
73113;SDS011;61301;51.956;5.876;2023-03-22T00:46:16;8.75;;;3.47;;
73113;SDS011;61301;51.956;5.876;2023-03-22T00:48:44;7.53;;;2.63;;
73113;SDS011;61301;51.956;5.876;2023-03-22T00:51:10;6.63;;;3.78;;
73113;SDS011;61301;51.956;5.876;2023-03-22T00:53:38;8.40;;;3.55;;
73113;SDS011;61301;51.956;5.876;2023-03-22T00:56:05;6.60;;;2.65;;
73113;SDS011;61301;51.956;5.876;2023-03-22T00:58:42;9.77;;;3.17;;
73113;SDS011;61301;51.956;5.876;2023-03-22T01:01:11;10.30;;;2.67;;
73113;SDS011;61301;51.956;5.876;2023-03-22T01:03:38;6.95;;;2.70;;
73113;SDS011;61301;51.956;5.876;2023-03-22T01:06:05;10.57;;;3.08;;
73113;SDS011;61301;51.956;5.876;2023-03-22T01:08:32;9.50;;;3.55;;
73113;SDS011;61301;51.956;5.876;2023-03-22T01:10:59;10.00;;;3.42;;
73113;SDS011;61301;51.956;5.876;2023-03-22T01:13:25;7.35;;;2.83;;
73113;SDS011;61301;51.956;5.876;2023-03-22T01:15:52;9.50;;;2.88;;
73113;SDS011;61301;51.956;5.876;2023-03-22T01:18:18;10.85;;;2.92;;
73113;SDS011;61301;51.956;5.876;2023-03-22T01:20:45;6.95;;;3.10;;
73113;SDS011;61301;51.956;5.876;2023-03-22T01:23:11;6.18;;;2.60;;
73113;SDS011;61301;51.956;5.876;2023-03-22T01:25:37;6.28;;;2.83;;
73113;SDS011;61301;51.956;5.876;2023-03-22T01:28:03;14.07;;;3.25;;
73113;SDS011;61301;51.956;5.876;2023-03-22T01:30:31;6.75;;;3.63;;
73113;SDS011;61301;51.956;5.876;2023-03-22T01:32:57;9.68;;;3.00;;
73113;SDS011;61301;51.956;5.876;2023-03-22T01:35:23;7.57;;;3.20;;
73113;SDS011;61301;51.956;5.876;2023-03-22T01:37:49;7.05;;;2.60;;
73113;SDS011;61301;51.956;5.876;2023-03-22T01:40:16;8.77;;;3.63;;
73113;SDS011;61301;51.956;5.876;2023-03-22T01:42:44;7.55;;;3.47;;
73113;SDS011;61301;51.956;5.876;2023-03-22T01:45:23;7.20;;;3.30;;
73113;SDS011;61301;51.956;5.876;2023-03-22T01:48:00;8.40;;;3.78;;
73113;SDS011;61301;51.956;5.876;2023-03-22T01:50:59;8.15;;;4.28;;
73113;SDS011;61301;51.956;5.876;2023-03-22T01:53:30;8.20;;;3.83;;
73113;SDS011;61301;51.956;5.876;2023-03-22T01:55:59;9.52;;;3.80;;
73113;SDS011;61301;51.956;5.876;2023-03-22T01:58:30;10.57;;;4.05;;
73113;SDS011;61301;51.956;5.876;2023-03-22T02:01:01;6.30;;;3.20;;
73113;SDS011;61301;51.956;5.876;2023-03-22T02:06:33;7.22;;;4.22;;
73113;SDS011;61301;51.956;5.876;2023-03-22T02:09:10;6.72;;;3.60;;
73113;SDS011;61301;51.956;5.876;2023-03-22T02:11:40;9.18;;;4.70;;
73113;SDS011;61301;51.956;5.876;2023-03-22T02:14:35;12.65;;;5.00;;
73113;SDS011;61301;51.956;5.876;2023-03-22T02:20:45;8.27;;;4.70;;
73113;SDS011;61301;51.956;5.876;2023-03-22T02:39:25;10.30;;;7.35;;
73113;SDS011;61301;51.956;5.876;2023-03-22T02:44:35;14.05;;;9.05;;
73113;SDS011;61301;51.956;5.876;2023-03-22T02:47:15;11.85;;;8.63;;
73113;SDS011;61301;51.956;5.876;2023-03-22T02:55:33;12.43;;;8.48;;
73113;SDS011;61301;51.956;5.876;2023-03-22T02:58:08;13.90;;;9.07;;
73113;SDS011;61301;51.956;5.876;2023-03-22T03:00:46;12.10;;;7.75;;
73113;SDS011;61301;51.956;5.876;2023-03-22T03:03:16;16.30;;;9.73;;
73113;SDS011;61301;51.956;5.876;2023-03-22T03:05:45;15.40;;;9.30;;
73113;SDS011;61301;51.956;5.876;2023-03-22T03:08:18;12.55;;;7.88;;
73113;SDS011;61301;51.956;5.876;2023-03-22T03:10:46;9.85;;;7.65;;
73113;SDS011;61301;51.956;5.876;2023-03-22T03:13:15;16.48;;;8.85;;
73113;SDS011;61301;51.956;5.876;2023-03-22T03:15:44;13.00;;;8.02;;
73113;SDS011;61301;51.956;5.876;2023-03-22T03:23:57;11.00;;;7.80;;
73113;SDS011;61301;51.956;5.876;2023-03-22T03:29:30;11.18;;;7.10;;
73113;SDS011;61301;51.956;5.876;2023-03-22T03:32:03;8.70;;;7.53;;
73113;SDS011;61301;51.956;5.876;2023-03-22T03:35:16;11.00;;;8.25;;
73113;SDS011;61301;51.956;5.876;2023-03-22T03:37:54;11.57;;;7.47;;
73113;SDS011;61301;51.956;5.876;2023-03-22T03:40:31;12.23;;;7.22;;
73113;SDS011;61301;51.956;5.876;2023-03-22T03:43:00;14.93;;;7.68;;
73113;SDS011;61301;51.956;5.876;2023-03-22T03:45:29;10.05;;;7.82;;
73113;SDS011;61301;51.956;5.876;2023-03-22T03:47:57;12.27;;;7.63;;
73113;SDS011;61301;51.956;5.876;2023-03-22T03:50:27;12.77;;;7.35;;
73113;SDS011;61301;51.956;5.876;2023-03-22T03:52:54;10.55;;;6.97;;
73113;SDS011;61301;51.956;5.876;2023-03-22T03:55:21;12.20;;;6.30;;
73113;SDS011;61301;51.956;5.876;2023-03-22T03:57:48;9.00;;;6.35;;
73113;SDS011;61301;51.956;5.876;2023-03-22T04:00:14;8.98;;;6.20;;
73113;SDS011;61301;51.956;5.876;2023-03-22T04:03:07;8.60;;;6.68;;
73113;SDS011;61301;51.956;5.876;2023-03-22T04:05:55;12.45;;;6.57;;
73113;SDS011;61301;51.956;5.876;2023-03-22T04:08:21;7.95;;;5.57;;
73113;SDS011;61301;51.956;5.876;2023-03-22T04:10:48;10.10;;;6.10;;
73113;SDS011;61301;51.956;5.876;2023-03-22T04:13:15;13.65;;;6.88;;
73113;SDS011;61301;51.956;5.876;2023-03-22T04:15:42;12.20;;;6.35;;
73113;SDS011;61301;51.956;5.876;2023-03-22T04:18:12;8.35;;;6.22;;
73113;SDS011;61301;51.956;5.876;2023-03-22T04:20:39;8.35;;;5.55;;
73113;SDS011;61301;51.956;5.876;2023-03-22T04:23:06;10.90;;;6.40;;
73113;SDS011;61301;51.956;5.876;2023-03-22T04:25:36;9.32;;;5.78;;
73113;SDS011;61301;51.956;5.876;2023-03-22T04:28:07;9.50;;;5.85;;
73113;SDS011;61301;51.956;5.876;2023-03-22T04:30:34;8.50;;;5.35;;
73113;SDS011;61301;51.956;5.876;2023-03-22T04:33:04;9.32;;;5.75;;
73113;SDS011;61301;51.956;5.876;2023-03-22T04:36:02;8.68;;;5.40;;
73113;SDS011;61301;51.956;5.876;2023-03-22T04:38:35;7.25;;;4.70;;
73113;SDS011;61301;51.956;5.876;2023-03-22T04:41:06;9.40;;;5.13;;
73113;SDS011;61301;51.956;5.876;2023-03-22T04:43:38;6.28;;;4.28;;
73113;SDS011;61301;51.956;5.876;2023-03-22T04:46:07;10.90;;;4.95;;
73113;SDS011;61301;51.956;5.876;2023-03-22T04:48:41;7.80;;;4.28;;
73113;SDS011;61301;51.956;5.876;2023-03-22T04:51:09;7.65;;;4.97;;
73113;SDS011;61301;51.956;5.876;2023-03-22T04:53:41;8.75;;;4.78;;
73113;SDS011;61301;51.956;5.876;2023-03-22T04:56:09;8.25;;;4.55;;
73113;SDS011;61301;51.956;5.876;2023-03-22T04:58:38;8.38;;;4.70;;
73113;SDS011;61301;51.956;5.876;2023-03-22T05:01:06;7.28;;;4.20;;
73113;SDS011;61301;51.956;5.876;2023-03-22T05:03:38;9.10;;;4.77;;
73113;SDS011;61301;51.956;5.876;2023-03-22T05:06:06;8.20;;;4.18;;
73113;SDS011;61301;51.956;5.876;2023-03-22T05:08:45;7.65;;;4.00;;
73113;SDS011;61301;51.956;5.876;2023-03-22T05:11:15;7.50;;;4.28;;
73113;SDS011;61301;51.956;5.876;2023-03-22T05:13:50;9.10;;;3.90;;
73113;SDS011;61301;51.956;5.876;2023-03-22T05:16:16;7.32;;;3.88;;
73113;SDS011;61301;51.956;5.876;2023-03-22T05:18:48;8.50;;;4.13;;
73113;SDS011;61301;51.956;5.876;2023-03-22T05:21:19;8.15;;;4.15;;
73113;SDS011;61301;51.956;5.876;2023-03-22T05:23:55;7.53;;;4.13;;
73113;SDS011;61301;51.956;5.876;2023-03-22T05:26:23;8.25;;;4.38;;
73113;SDS011;61301;51.956;5.876;2023-03-22T05:28:52;7.88;;;4.13;;
73113;SDS011;61301;51.956;5.876;2023-03-22T05:31:39;9.20;;;3.97;;
73113;SDS011;61301;51.956;5.876;2023-03-22T05:34:06;8.85;;;3.85;;
73113;SDS011;61301;51.956;5.876;2023-03-22T05:36:34;7.45;;;3.90;;
73113;SDS011;61301;51.956;5.876;2023-03-22T05:41:45;6.65;;;3.13;;
73113;SDS011;61301;51.956;5.876;2023-03-22T05:44:12;7.18;;;3.60;;
73113;SDS011;61301;51.956;5.876;2023-03-22T05:46:47;9.07;;;3.20;;
73113;SDS011;61301;51.956;5.876;2023-03-22T05:49:32;6.43;;;3.22;;
73113;SDS011;61301;51.956;5.876;2023-03-22T05:51:59;6.97;;;3.55;;
73113;SDS011;61301;51.956;5.876;2023-03-22T05:54:40;6.97;;;3.35;;
73113;SDS011;61301;51.956;5.876;2023-03-22T05:57:06;9.55;;;3.42;;
73113;SDS011;61301;51.956;5.876;2023-03-22T05:59:33;4.40;;;3.10;;
73113;SDS011;61301;51.956;5.876;2023-03-22T06:01:59;9.00;;;3.83;;
73113;SDS011;61301;51.956;5.876;2023-03-22T06:04:25;11.32;;;3.58;;
73113;SDS011;61301;51.956;5.876;2023-03-22T06:07:05;8.23;;;3.50;;
73113;SDS011;61301;51.956;5.876;2023-03-22T06:10:00;5.75;;;3.22;;
73113;SDS011;61301;51.956;5.876;2023-03-22T06:12:29;8.38;;;3.20;;
73113;SDS011;61301;51.956;5.876;2023-03-22T06:15:05;8.40;;;3.17;;
73113;SDS011;61301;51.956;5.876;2023-03-22T06:17:32;6.40;;;3.13;;
73113;SDS011;61301;51.956;5.876;2023-03-22T06:19:58;11.05;;;3.80;;
73113;SDS011;61301;51.956;5.876;2023-03-22T06:22:24;6.43;;;3.13;;
73113;SDS011;61301;51.956;5.876;2023-03-22T06:24:51;9.85;;;3.75;;
73113;SDS011;61301;51.956;5.876;2023-03-22T06:27:27;6.15;;;2.97;;
73113;SDS011;61301;51.956;5.876;2023-03-22T06:29:54;4.93;;;3.08;;
73113;SDS011;61301;51.956;5.876;2023-03-22T06:32:23;9.82;;;4.05;;
73113;SDS011;61301;51.956;5.876;2023-03-22T06:34:51;5.38;;;2.75;;
73113;SDS011;61301;51.956;5.876;2023-03-22T06:37:19;5.63;;;2.60;;
73113;SDS011;61301;51.956;5.876;2023-03-22T06:39:46;7.70;;;3.45;;
73113;SDS011;61301;51.956;5.876;2023-03-22T06:42:12;5.75;;;2.65;;
73113;SDS011;61301;51.956;5.876;2023-03-22T06:44:40;10.75;;;3.40;;
73113;SDS011;61301;51.956;5.876;2023-03-22T06:47:14;7.07;;;2.83;;
73113;SDS011;61301;51.956;5.876;2023-03-22T06:49:43;7.53;;;2.40;;
73113;SDS011;61301;51.956;5.876;2023-03-22T06:52:14;7.43;;;2.65;;
73113;SDS011;61301;51.956;5.876;2023-03-22T06:54:41;5.50;;;2.55;;
73113;SDS011;61301;51.956;5.876;2023-03-22T06:57:08;7.63;;;2.88;;
73113;SDS011;61301;51.956;5.876;2023-03-22T06:59:35;10.30;;;2.90;;
73113;SDS011;61301;51.956;5.876;2023-03-22T07:02:01;7.40;;;3.15;;
73113;SDS011;61301;51.956;5.876;2023-03-22T07:04:28;9.23;;;2.58;;
73113;SDS011;61301;51.956;5.876;2023-03-22T07:06:54;9.57;;;2.63;;
73113;SDS011;61301;51.956;5.876;2023-03-22T07:09:21;8.40;;;2.67;;
73113;SDS011;61301;51.956;5.876;2023-03-22T07:11:50;10.63;;;3.10;;
73113;SDS011;61301;51.956;5.876;2023-03-22T07:14:17;7.00;;;2.50;;
73113;SDS011;61301;51.956;5.876;2023-03-22T07:16:51;6.25;;;2.45;;
73113;SDS011;61301;51.956;5.876;2023-03-22T07:19:19;11.43;;;3.50;;
73113;SDS011;61301;51.956;5.876;2023-03-22T07:21:46;6.55;;;2.70;;
73113;SDS011;61301;51.956;5.876;2023-03-22T07:24:12;7.28;;;2.78;;
73113;SDS011;61301;51.956;5.876;2023-03-22T07:26:39;6.93;;;2.50;;
73113;SDS011;61301;51.956;5.876;2023-03-22T07:29:07;7.93;;;2.60;;
73113;SDS011;61301;51.956;5.876;2023-03-22T07:31:33;8.63;;;2.80;;
73113;SDS011;61301;51.956;5.876;2023-03-22T07:34:09;11.30;;;3.25;;
73113;SDS011;61301;51.956;5.876;2023-03-22T07:36:44;8.82;;;3.47;;
73113;SDS011;61301;51.956;5.876;2023-03-22T07:39:11;7.50;;;3.17;;
73113;SDS011;61301;51.956;5.876;2023-03-22T07:41:42;6.53;;;2.70;;
73113;SDS011;61301;51.956;5.876;2023-03-22T07:44:24;9.43;;;2.72;;
73113;SDS011;61301;51.956;5.876;2023-03-22T07:47:10;9.82;;;3.92;;
73113;SDS011;61301;51.956;5.876;2023-03-22T07:49:42;9.07;;;3.15;;
73113;SDS011;61301;51.956;5.876;2023-03-22T07:52:14;6.25;;;3.13;;
73113;SDS011;61301;51.956;5.876;2023-03-22T07:54:40;7.60;;;2.80;;
73113;SDS011;61301;51.956;5.876;2023-03-22T07:57:08;11.70;;;3.28;;
73113;SDS011;61301;51.956;5.876;2023-03-22T07:59:40;10.73;;;3.58;;
73113;SDS011;61301;51.956;5.876;2023-03-22T08:02:11;10.07;;;4.07;;
73113;SDS011;61301;51.956;5.876;2023-03-22T08:04:45;11.68;;;4.15;;
73113;SDS011;61301;51.956;5.876;2023-03-22T08:07:15;11.40;;;3.33;;
73113;SDS011;61301;51.956;5.876;2023-03-22T08:09:43;9.18;;;3.40;;
73113;SDS011;61301;51.956;5.876;2023-03-22T08:12:10;15.20;;;3.53;;
73113;SDS011;61301;51.956;5.876;2023-03-22T08:14:38;10.95;;;2.95;;
73113;SDS011;61301;51.956;5.876;2023-03-22T08:17:12;11.95;;;3.00;;
73113;SDS011;61301;51.956;5.876;2023-03-22T08:19:38;8.85;;;2.92;;
73113;SDS011;61301;51.956;5.876;2023-03-22T08:22:07;7.90;;;2.92;;
73113;SDS011;61301;51.956;5.876;2023-03-22T08:24:54;8.30;;;2.65;;
73113;SDS011;61301;51.956;5.876;2023-03-22T08:27:30;12.25;;;3.00;;
73113;SDS011;61301;51.956;5.876;2023-03-22T08:29:58;10.02;;;3.00;;
73113;SDS011;61301;51.956;5.876;2023-03-22T08:32:24;9.38;;;3.65;;
73113;SDS011;61301;51.956;5.876;2023-03-22T08:34:50;11.40;;;2.95;;
73113;SDS011;61301;51.956;5.876;2023-03-22T08:37:17;8.88;;;3.25;;
73113;SDS011;61301;51.956;5.876;2023-03-22T08:39:45;10.43;;;3.47;;
73113;SDS011;61301;51.956;5.876;2023-03-22T08:42:21;11.25;;;3.65;;
73113;SDS011;61301;51.956;5.876;2023-03-22T08:44:48;10.88;;;3.10;;
73113;SDS011;61301;51.956;5.876;2023-03-22T08:47:17;12.05;;;3.42;;
73113;SDS011;61301;51.956;5.876;2023-03-22T08:49:43;8.85;;;3.08;;
73113;SDS011;61301;51.956;5.876;2023-03-22T08:52:22;7.47;;;2.75;;
73113;SDS011;61301;51.956;5.876;2023-03-22T08:55:01;10.82;;;3.60;;
73113;SDS011;61301;51.956;5.876;2023-03-22T08:57:47;11.02;;;3.35;;
73113;SDS011;61301;51.956;5.876;2023-03-22T09:00:33;13.23;;;4.07;;
73113;SDS011;61301;51.956;5.876;2023-03-22T09:03:12;10.05;;;3.38;;
73113;SDS011;61301;51.956;5.876;2023-03-22T09:05:39;8.32;;;2.75;;
73113;SDS011;61301;51.956;5.876;2023-03-22T09:08:06;8.77;;;2.85;;
73113;SDS011;61301;51.956;5.876;2023-03-22T09:10:39;13.35;;;3.30;;
73113;SDS011;61301;51.956;5.876;2023-03-22T09:13:06;9.77;;;3.03;;
73113;SDS011;61301;51.956;5.876;2023-03-22T09:15:32;11.32;;;2.55;;
73113;SDS011;61301;51.956;5.876;2023-03-22T09:18:10;10.23;;;2.80;;
73113;SDS011;61301;51.956;5.876;2023-03-22T09:20:37;5.88;;;2.40;;
73113;SDS011;61301;51.956;5.876;2023-03-22T09:23:05;10.18;;;2.65;;
73113;SDS011;61301;51.956;5.876;2023-03-22T09:25:31;8.35;;;2.13;;
73113;SDS011;61301;51.956;5.876;2023-03-22T09:27:57;10.30;;;3.03;;
73113;SDS011;61301;51.956;5.876;2023-03-22T09:30:24;8.65;;;2.45;;
73113;SDS011;61301;51.956;5.876;2023-03-22T09:32:50;4.85;;;2.22;;
73113;SDS011;61301;51.956;5.876;2023-03-22T09:35:16;7.10;;;2.65;;
73113;SDS011;61301;51.956;5.876;2023-03-22T09:37:52;7.00;;;1.80;;
73113;SDS011;61301;51.956;5.876;2023-03-22T09:40:20;7.28;;;2.28;;
73113;SDS011;61301;51.956;5.876;2023-03-22T09:42:51;6.82;;;2.03;;
73113;SDS011;61301;51.956;5.876;2023-03-22T09:45:22;12.57;;;2.38;;
73113;SDS011;61301;51.956;5.876;2023-03-22T09:47:59;9.30;;;2.53;;
73113;SDS011;61301;51.956;5.876;2023-03-22T09:50:28;10.05;;;2.25;;
73113;SDS011;61301;51.956;5.876;2023-03-22T09:52:57;6.65;;;1.88;;
73113;SDS011;61301;51.956;5.876;2023-03-22T09:56:00;8.68;;;2.00;;
73113;SDS011;61301;51.956;5.876;2023-03-22T09:58:32;6.85;;;2.15;;
73113;SDS011;61301;51.956;5.876;2023-03-22T10:06:21;4.38;;;1.60;;
73113;SDS011;61301;51.956;5.876;2023-03-22T10:11:45;10.65;;;2.67;;
73113;SDS011;61301;51.956;5.876;2023-03-22T10:16:57;6.55;;;1.88;;
73113;SDS011;61301;51.956;5.876;2023-03-22T10:19:30;6.50;;;1.70;;
73113;SDS011;61301;51.956;5.876;2023-03-22T10:22:00;10.05;;;2.70;;
73113;SDS011;61301;51.956;5.876;2023-03-22T10:24:29;11.48;;;2.33;;
73113;SDS011;61301;51.956;5.876;2023-03-22T10:26:58;11.18;;;2.05;;
73113;SDS011;61301;51.956;5.876;2023-03-22T10:29:27;10.02;;;1.88;;
73113;SDS011;61301;51.956;5.876;2023-03-22T10:31:58;7.20;;;1.90;;
73113;SDS011;61301;51.956;5.876;2023-03-22T10:34:38;9.43;;;1.52;;
73113;SDS011;61301;51.956;5.876;2023-03-22T10:37:05;9.98;;;1.77;;
73113;SDS011;61301;51.956;5.876;2023-03-22T10:39:35;11.13;;;1.75;;
73113;SDS011;61301;51.956;5.876;2023-03-22T10:42:07;6.03;;;2.00;;
73113;SDS011;61301;51.956;5.876;2023-03-22T10:44:59;11.52;;;2.22;;
73113;SDS011;61301;51.956;5.876;2023-03-22T10:47:30;11.02;;;2.38;;
73113;SDS011;61301;51.956;5.876;2023-03-22T10:50:02;11.98;;;2.17;;
73113;SDS011;61301;51.956;5.876;2023-03-22T10:54:59;13.48;;;2.58;;
73113;SDS011;61301;51.956;5.876;2023-03-22T10:57:25;10.25;;;2.00;;
73113;SDS011;61301;51.956;5.876;2023-03-22T10:59:54;10.43;;;2.58;;
73113;SDS011;61301;51.956;5.876;2023-03-22T11:04:58;6.82;;;2.15;;
73113;SDS011;61301;51.956;5.876;2023-03-22T11:10:38;6.38;;;1.38;;
73113;SDS011;61301;51.956;5.876;2023-03-22T11:12:52;6.57;;;2.05;;
73113;SDS011;61301;51.956;5.876;2023-03-22T11:15:30;11.57;;;2.63;;
73113;SDS011;61301;51.956;5.876;2023-03-22T11:17:59;10.90;;;2.55;;
73113;SDS011;61301;51.956;5.876;2023-03-22T11:20:29;7.88;;;2.42;;
73113;SDS011;61301;51.956;5.876;2023-03-22T11:22:58;7.60;;;2.05;;
73113;SDS011;61301;51.956;5.876;2023-03-22T11:25:28;6.60;;;2.10;;
73113;SDS011;61301;51.956;5.876;2023-03-22T11:31:07;9.80;;;2.03;;
73113;SDS011;61301;51.956;5.876;2023-03-22T11:33:37;6.00;;;1.90;;
73113;SDS011;61301;51.956;5.876;2023-03-22T11:36:16;8.52;;;1.98;;
73113;SDS011;61301;51.956;5.876;2023-03-22T11:38:43;7.30;;;1.90;;
73113;SDS011;61301;51.956;5.876;2023-03-22T11:41:20;6.68;;;1.90;;
73113;SDS011;61301;51.956;5.876;2023-03-22T11:43:53;5.95;;;1.67;;
73113;SDS011;61301;51.956;5.876;2023-03-22T11:46:21;4.18;;;1.42;;
73113;SDS011;61301;51.956;5.876;2023-03-22T11:48:49;9.00;;;2.75;;
73113;SDS011;61301;51.956;5.876;2023-03-22T11:51:25;6.68;;;2.00;;
73113;SDS011;61301;51.956;5.876;2023-03-22T11:56:49;6.22;;;1.70;;
73113;SDS011;61301;51.956;5.876;2023-03-22T11:59:21;5.32;;;2.30;;
73113;SDS011;61301;51.956;5.876;2023-03-22T12:04:37;6.68;;;1.70;;
73113;SDS011;61301;51.956;5.876;2023-03-22T12:07:11;7.97;;;2.33;;
73113;SDS011;61301;51.956;5.876;2023-03-22T12:09:45;8.73;;;1.95;;
73113;SDS011;61301;51.956;5.876;2023-03-22T12:12:34;4.50;;;1.38;;
73113;SDS011;61301;51.956;5.876;2023-03-22T12:15:18;9.38;;;2.45;;
73113;SDS011;61301;51.956;5.876;2023-03-22T12:17:59;3.97;;;1.80;;
73113;SDS011;61301;51.956;5.876;2023-03-22T12:20:35;5.88;;;1.83;;
73113;SDS011;61301;51.956;5.876;2023-03-22T12:23:23;4.80;;;1.80;;
73113;SDS011;61301;51.956;5.876;2023-03-22T12:26:04;6.85;;;1.75;;
73113;SDS011;61301;51.956;5.876;2023-03-22T12:28:58;6.95;;;2.00;;
73113;SDS011;61301;51.956;5.876;2023-03-22T12:31:39;7.03;;;1.77;;
73113;SDS011;61301;51.956;5.876;2023-03-22T12:34:13;7.88;;;2.05;;
73113;SDS011;61301;51.956;5.876;2023-03-22T12:36:43;5.38;;;1.80;;
73113;SDS011;61301;51.956;5.876;2023-03-22T12:39:23;6.00;;;2.10;;
73113;SDS011;61301;51.956;5.876;2023-03-22T12:41:55;5.22;;;1.60;;
73113;SDS011;61301;51.956;5.876;2023-03-22T12:44:26;5.90;;;1.80;;
73113;SDS011;61301;51.956;5.876;2023-03-22T12:49:53;4.32;;;2.03;;
73113;SDS011;61301;51.956;5.876;2023-03-22T12:52:41;6.25;;;1.92;;
73113;SDS011;61301;51.956;5.876;2023-03-22T12:55:20;7.47;;;1.80;;
73113;SDS011;61301;51.956;5.876;2023-03-22T12:57:51;6.55;;;1.75;;
73113;SDS011;61301;51.956;5.876;2023-03-22T13:00:20;2.97;;;1.40;;
73113;SDS011;61301;51.956;5.876;2023-03-22T13:03:02;4.38;;;1.35;;
73113;SDS011;61301;51.956;5.876;2023-03-22T13:05:33;7.53;;;1.85;;
73113;SDS011;61301;51.956;5.876;2023-03-22T13:08:01;4.75;;;1.70;;
73113;SDS011;61301;51.956;5.876;2023-03-22T13:13:12;5.88;;;1.70;;
73113;SDS011;61301;51.956;5.876;2023-03-22T13:15:56;8.88;;;2.13;;
73113;SDS011;61301;51.956;5.876;2023-03-22T13:18:38;6.53;;;1.88;;
73113;SDS011;61301;51.956;5.876;2023-03-22T13:21:24;7.05;;;1.75;;
73113;SDS011;61301;51.956;5.876;2023-03-22T13:26:47;6.90;;;2.10;;
73113;SDS011;61301;51.956;5.876;2023-03-22T13:32:02;4.55;;;1.20;;
73113;SDS011;61301;51.956;5.876;2023-03-22T13:34:36;5.47;;;1.75;;
73113;SDS011;61301;51.956;5.876;2023-03-22T13:37:07;7.63;;;1.80;;
73113;SDS011;61301;51.956;5.876;2023-03-22T13:39:35;10.38;;;1.50;;
73113;SDS011;61301;51.956;5.876;2023-03-22T13:44:53;7.30;;;2.08;;
73113;SDS011;61301;51.956;5.876;2023-03-22T13:47:32;3.60;;;1.30;;
73113;SDS011;61301;51.956;5.876;2023-03-22T13:50:02;5.40;;;1.73;;
73113;SDS011;61301;51.956;5.876;2023-03-22T13:52:40;5.90;;;1.67;;
73113;SDS011;61301;51.956;5.876;2023-03-22T13:58:02;5.90;;;1.58;;
73113;SDS011;61301;51.956;5.876;2023-03-22T14:03:00;5.93;;;1.35;;
73113;SDS011;61301;51.956;5.876;2023-03-22T14:05:30;5.35;;;1.35;;
73113;SDS011;61301;51.956;5.876;2023-03-22T14:08:00;4.30;;;1.73;;
73113;SDS011;61301;51.956;5.876;2023-03-22T14:10:39;7.30;;;1.50;;
73113;SDS011;61301;51.956;5.876;2023-03-22T14:13:26;3.65;;;1.88;;
73113;SDS011;61301;51.956;5.876;2023-03-22T14:19:16;9.05;;;2.20;;
73113;SDS011;61301;51.956;5.876;2023-03-22T14:24:16;5.32;;;1.85;;
73113;SDS011;61301;51.956;5.876;2023-03-22T14:26:45;6.40;;;1.95;;
73113;SDS011;61301;51.956;5.876;2023-03-22T14:29:16;5.55;;;2.08;;
73113;SDS011;61301;51.956;5.876;2023-03-22T14:32:01;5.78;;;2.28;;
73113;SDS011;61301;51.956;5.876;2023-03-22T14:34:35;8.13;;;2.15;;
73113;SDS011;61301;51.956;5.876;2023-03-22T14:37:06;6.95;;;2.78;;
73113;SDS011;61301;51.956;5.876;2023-03-22T14:39:38;5.22;;;1.98;;
73113;SDS011;61301;51.956;5.876;2023-03-22T14:42:39;4.72;;;2.47;;
73113;SDS011;61301;51.956;5.876;2023-03-22T14:45:00;6.90;;;2.50;;
73113;SDS011;61301;51.956;5.876;2023-03-22T14:47:32;7.95;;;2.70;;
73113;SDS011;61301;51.956;5.876;2023-03-22T14:50:07;7.75;;;2.83;;
73113;SDS011;61301;51.956;5.876;2023-03-22T14:52:36;5.47;;;2.30;;
73113;SDS011;61301;51.956;5.876;2023-03-22T14:55:06;8.07;;;3.25;;
73113;SDS011;61301;51.956;5.876;2023-03-22T14:57:46;4.88;;;2.47;;
73113;SDS011;61301;51.956;5.876;2023-03-22T15:00:15;5.97;;;2.55;;
73113;SDS011;61301;51.956;5.876;2023-03-22T15:02:47;9.45;;;4.05;;
73113;SDS011;61301;51.956;5.876;2023-03-22T15:05:19;5.45;;;2.90;;
73113;SDS011;61301;51.956;5.876;2023-03-22T15:07:52;9.05;;;2.97;;
73113;SDS011;61301;51.956;5.876;2023-03-22T15:10:24;6.00;;;2.67;;
73113;SDS011;61301;51.956;5.876;2023-03-22T15:12:53;7.57;;;2.63;;
73113;SDS011;61301;51.956;5.876;2023-03-22T15:15:21;6.47;;;2.35;;
73113;SDS011;61301;51.956;5.876;2023-03-22T15:17:53;5.07;;;2.22;;
73113;SDS011;61301;51.956;5.876;2023-03-22T15:20:27;7.05;;;2.47;;
73113;SDS011;61301;51.956;5.876;2023-03-22T15:22:56;5.90;;;2.92;;
73113;SDS011;61301;51.956;5.876;2023-03-22T15:25:28;7.38;;;2.80;;
73113;SDS011;61301;51.956;5.876;2023-03-22T15:27:57;5.78;;;2.40;;
73113;SDS011;61301;51.956;5.876;2023-03-22T15:30:31;9.57;;;3.03;;
73113;SDS011;61301;51.956;5.876;2023-03-22T15:33:06;5.72;;;2.88;;
73113;SDS011;61301;51.956;5.876;2023-03-22T15:35:40;5.65;;;3.00;;
73113;SDS011;61301;51.956;5.876;2023-03-22T15:38:06;7.35;;;3.17;;
73113;SDS011;61301;51.956;5.876;2023-03-22T15:40:37;5.95;;;2.83;;
73113;SDS011;61301;51.956;5.876;2023-03-22T15:45:41;8.25;;;3.72;;
73113;SDS011;61301;51.956;5.876;2023-03-22T15:48:15;7.63;;;3.92;;
73113;SDS011;61301;51.956;5.876;2023-03-22T15:50:47;7.40;;;3.10;;
73113;SDS011;61301;51.956;5.876;2023-03-22T15:53:31;6.38;;;2.80;;
73113;SDS011;61301;51.956;5.876;2023-03-22T15:56:00;8.35;;;3.40;;
73113;SDS011;61301;51.956;5.876;2023-03-22T15:58:30;7.75;;;3.80;;
73113;SDS011;61301;51.956;5.876;2023-03-22T16:01:08;4.18;;;2.92;;
73113;SDS011;61301;51.956;5.876;2023-03-22T16:03:43;7.35;;;3.35;;
73113;SDS011;61301;51.956;5.876;2023-03-22T16:06:12;7.32;;;3.58;;
73113;SDS011;61301;51.956;5.876;2023-03-22T16:08:38;7.38;;;3.42;;
73113;SDS011;61301;51.956;5.876;2023-03-22T16:11:04;6.35;;;3.35;;
73113;SDS011;61301;51.956;5.876;2023-03-22T16:13:31;6.65;;;3.63;;
73113;SDS011;61301;51.956;5.876;2023-03-22T16:15:59;9.55;;;3.83;;
73113;SDS011;61301;51.956;5.876;2023-03-22T16:18:25;12.40;;;3.72;;
73113;SDS011;61301;51.956;5.876;2023-03-22T16:20:52;7.63;;;3.65;;
73113;SDS011;61301;51.956;5.876;2023-03-22T16:23:20;6.45;;;4.15;;
73113;SDS011;61301;51.956;5.876;2023-03-22T16:25:48;6.00;;;3.72;;
73113;SDS011;61301;51.956;5.876;2023-03-22T16:28:14;5.90;;;3.65;;
73113;SDS011;61301;51.956;5.876;2023-03-22T16:30:41;6.55;;;3.85;;
73113;SDS011;61301;51.956;5.876;2023-03-22T16:33:15;7.18;;;4.25;;
73113;SDS011;61301;51.956;5.876;2023-03-22T16:35:43;8.05;;;3.95;;
73113;SDS011;61301;51.956;5.876;2023-03-22T16:38:13;4.60;;;3.95;;
73113;SDS011;61301;51.956;5.876;2023-03-22T16:40:43;6.90;;;3.60;;
73113;SDS011;61301;51.956;5.876;2023-03-22T16:43:11;6.10;;;3.25;;
73113;SDS011;61301;51.956;5.876;2023-03-22T16:45:38;10.38;;;4.03;;
73113;SDS011;61301;51.956;5.876;2023-03-22T16:48:07;6.85;;;3.90;;
73113;SDS011;61301;51.956;5.876;2023-03-22T16:50:33;6.95;;;3.97;;